Time;durP1;ratioP1;P1;durP2;ratioP2;P2;SDS_P1;SDS_P2;PMS_P1;PMS_P2;Temp;Humidity;BMP_temperature;BMP_pressure;BME280_temperature;BME280_humidity;BME280_pressure;Samples;Min_cycle;Max_cycle;Signal;HPM_P1;HPM_P2
2023/09/28 00:02:18;;;;;;;17.83;15.07;;;18.30;99.90;;;;;;5027525;28;20045;-77
2023/09/28 00:04:43;;;;;;;19.80;14.50;;;18.20;99.90;;;;;;5028872;28;20439;-77
2023/09/28 00:07:09;;;;;;;18.15;14.52;;;18.20;99.90;;;;;;5025720;28;20041;-77
2023/09/28 00:09:35;;;;;;;17.00;14.18;;;18.20;99.90;;;;;;5043960;28;20069;-77
2023/09/28 00:12:02;;;;;;;20.30;13.95;;;18.20;99.90;;;;;;5047072;28;20102;-77
2023/09/28 00:14:28;;;;;;;17.25;13.68;;;18.10;99.90;;;;;;5047102;28;20044;-77
2023/09/28 00:16:56;;;;;;;16.17;13.23;;;18.10;99.90;;;;;;5010510;28;20072;-77
2023/09/28 00:19:24;;;;;;;16.88;13.88;;;18.10;99.90;;;;;;5050495;28;20496;-77
2023/09/28 00:21:50;;;;;;;16.80;14.07;;;18.10;99.90;;;;;;5047799;28;20116;-77
2023/09/28 00:24:16;;;;;;;14.75;13.02;;;18.10;99.90;;;;;;5049364;28;20401;-77
2023/09/28 00:26:42;;;;;;;14.52;12.63;;;18.10;99.90;;;;;;5044072;28;20041;-78
2023/09/28 00:29:08;;;;;;;16.15;13.75;;;18.00;99.90;;;;;;5027330;28;20056;-77
2023/09/28 00:31:33;;;;;;;13.68;12.27;;;18.00;99.90;;;;;;5028286;28;20087;-78
2023/09/28 00:34:00;;;;;;;13.63;11.80;;;18.00;99.90;;;;;;5048140;28;20079;-78
2023/09/28 00:36:25;;;;;;;13.90;11.70;;;18.00;99.90;;;;;;5028073;28;20056;-78
2023/09/28 00:38:51;;;;;;;14.85;11.90;;;18.00;99.90;;;;;;5042561;28;20037;-78
2023/09/28 00:41:18;;;;;;;14.68;12.05;;;18.00;99.90;;;;;;5030194;28;20053;-77
2023/09/28 00:43:44;;;;;;;16.08;12.35;;;17.90;99.90;;;;;;5046671;28;20120;-77
2023/09/28 00:46:14;;;;;;;22.60;13.07;;;17.90;99.90;;;;;;5047687;28;20389;-78
2023/09/28 00:48:58;;;;;;;17.08;13.15;;;17.90;99.90;;;;;;5045235;28;20087;-77
2023/09/28 00:51:26;;;;;;;18.60;12.35;;;17.90;99.90;;;;;;5031005;28;20099;-78
2023/09/28 00:53:52;;;;;;;15.38;12.55;;;17.80;99.90;;;;;;5049657;28;20428;-78
2023/09/28 00:56:19;;;;;;;15.02;12.85;;;17.80;99.90;;;;;;5029237;28;20049;-77
2023/09/28 00:58:50;;;;;;;15.13;12.70;;;17.70;99.90;;;;;;5041115;28;20408;-77
2023/09/28 01:01:15;;;;;;;15.45;12.95;;;17.60;99.90;;;;;;5026211;28;20037;-77
2023/09/28 01:03:41;;;;;;;15.45;11.82;;;17.70;99.90;;;;;;5043823;28;20053;-77
2023/09/28 01:06:08;;;;;;;14.45;12.73;;;17.60;99.90;;;;;;5042410;28;20045;-77
2023/09/28 01:08:33;;;;;;;15.13;12.13;;;17.60;99.90;;;;;;5044991;28;20045;-77
2023/09/28 01:11:01;;;;;;;14.68;12.38;;;17.60;99.90;;;;;;5043891;28;20047;-77
2023/09/28 01:13:27;;;;;;;13.90;11.52;;;17.50;99.90;;;;;;5027519;28;20037;-77
2023/09/28 01:15:53;;;;;;;16.80;12.85;;;17.40;99.90;;;;;;5042975;28;20400;-77
2023/09/28 01:18:22;;;;;;;14.52;12.85;;;17.40;99.90;;;;;;5025113;28;20485;-77
2023/09/28 01:20:51;;;;;;;16.63;11.95;;;17.40;99.90;;;;;;5046450;28;20068;-78
2023/09/28 01:23:18;;;;;;;16.08;12.30;;;17.30;99.90;;;;;;5042031;28;20047;-77
2023/09/28 01:25:49;;;;;;;13.60;11.52;;;17.30;99.90;;;;;;5046167;28;20049;-77
2023/09/28 01:28:18;;;;;;;14.38;11.93;;;17.20;99.90;;;;;;5043483;28;20460;-77
2023/09/28 01:30:44;;;;;;;15.70;10.95;;;17.30;99.90;;;;;;5027769;28;20660;-77
2023/09/28 01:33:10;;;;;;;12.75;10.68;;;17.20;99.90;;;;;;5041802;28;20049;-77
2023/09/28 01:35:36;;;;;;;13.18;10.88;;;17.10;99.90;;;;;;5044366;28;20523;-77
2023/09/28 01:38:30;;;;;;;14.93;11.65;;;17.20;99.90;;;;;;5047654;28;20087;-77
2023/09/28 01:40:57;;;;;;;12.45;10.70;;;17.10;99.90;;;;;;5045513;28;20594;-77
2023/09/28 01:43:23;;;;;;;16.30;10.13;;;17.00;99.90;;;;;;5045523;28;20678;-77
2023/09/28 01:45:49;;;;;;;11.48;10.27;;;17.10;99.90;;;;;;5047484;28;20116;-77
2023/09/28 01:48:15;;;;;;;12.48;10.27;;;17.00;99.90;;;;;;5045853;28;20049;-77
2023/09/28 01:50:44;;;;;;;13.30;10.23;;;17.00;99.90;;;;;;5048833;28;20119;-77
2023/09/28 01:53:10;;;;;;;11.57;10.27;;;16.90;99.90;;;;;;5026511;28;20048;-77
2023/09/28 01:55:36;;;;;;;12.77;9.77;;;17.00;99.90;;;;;;5011215;28;20041;-77
2023/09/28 01:58:04;;;;;;;16.58;9.65;;;16.90;99.90;;;;;;5042473;28;20068;-77
2023/09/28 02:00:30;;;;;;;11.15;9.18;;;16.90;99.90;;;;;;5009300;28;20041;-77
2023/09/28 02:02:56;;;;;;;11.23;8.38;;;16.90;99.90;;;;;;5027804;28;20127;-77
2023/09/28 02:05:22;;;;;;;10.00;8.25;;;17.00;99.90;;;;;;5024647;28;20065;-78
2023/09/28 02:07:49;;;;;;;13.20;7.78;;;16.90;99.90;;;;;;5023693;28;20045;-77
2023/09/28 02:10:15;;;;;;;13.25;7.82;;;17.00;99.90;;;;;;5025555;28;20045;-77
2023/09/28 02:12:45;;;;;;;10.10;6.82;;;17.00;99.90;;;;;;5045022;28;20067;-78
2023/09/28 02:15:14;;;;;;;9.70;7.22;;;17.00;99.90;;;;;;5043302;28;20420;-77
2023/09/28 02:17:41;;;;;;;10.45;6.95;;;17.00;99.90;;;;;;5046294;28;20037;-78
2023/09/28 02:20:09;;;;;;;10.15;6.72;;;17.00;99.90;;;;;;5045005;28;20091;-77
2023/09/28 02:22:45;;;;;;;10.45;6.82;;;17.10;99.90;;;;;;5045014;28;20056;-77
2023/09/28 02:25:17;;;;;;;10.38;6.70;;;17.10;99.90;;;;;;5047275;28;20091;-77
2023/09/28 02:27:43;;;;;;;11.23;6.90;;;17.10;99.90;;;;;;5044704;28;20047;-77
2023/09/28 02:30:13;;;;;;;9.00;6.82;;;17.10;99.90;;;;;;5029048;28;20041;-78
2023/09/28 02:32:40;;;;;;;10.15;6.47;;;17.20;99.90;;;;;;5044893;28;20044;-77
2023/09/28 02:35:07;;;;;;;6.97;6.28;;;17.20;99.90;;;;;;5023043;28;20084;-77
2023/09/28 02:37:35;;;;;;;18.25;6.97;;;17.30;99.90;;;;;;5025894;28;20049;-77
2023/09/28 02:40:05;;;;;;;8.23;6.30;;;17.20;99.90;;;;;;5028586;28;20133;-77
2023/09/28 02:42:32;;;;;;;10.90;6.22;;;17.20;99.90;;;;;;5031028;28;20064;-78
2023/09/28 02:44:58;;;;;;;11.00;6.45;;;17.30;99.90;;;;;;5050513;28;20493;-78
2023/09/28 02:47:24;;;;;;;11.55;6.60;;;17.30;99.90;;;;;;5049805;28;20120;-78
2023/09/28 02:49:51;;;;;;;10.80;7.07;;;17.30;99.90;;;;;;5029040;28;20135;-78
2023/09/28 02:52:17;;;;;;;11.10;6.32;;;17.40;99.90;;;;;;5028806;28;20084;-77
2023/09/28 02:54:43;;;;;;;9.85;6.22;;;17.30;99.90;;;;;;5028014;28;20078;-77
2023/09/28 02:57:10;;;;;;;8.85;6.32;;;17.30;99.90;;;;;;5028782;28;20052;-77
2023/09/28 02:59:36;;;;;;;12.05;6.80;;;17.30;99.90;;;;;;5013369;28;20051;-77
2023/09/28 03:02:03;;;;;;;11.77;6.60;;;17.40;99.90;;;;;;5031870;28;20511;-77
2023/09/28 03:04:33;;;;;;;11.55;6.82;;;17.40;99.90;;;;;;5049578;28;20500;-77
2023/09/28 03:06:59;;;;;;;10.68;6.57;;;17.30;99.90;;;;;;5027026;28;20458;-77
2023/09/28 03:09:25;;;;;;;11.27;6.35;;;17.30;99.90;;;;;;5042228;28;20038;-77
2023/09/28 03:11:51;;;;;;;10.93;6.78;;;17.20;99.90;;;;;;5051378;28;20467;-77
2023/09/28 03:14:18;;;;;;;10.23;6.65;;;17.20;99.90;;;;;;5046071;28;20179;-77
2023/09/28 03:16:44;;;;;;;11.02;6.78;;;17.20;99.90;;;;;;5051475;28;20037;-77
2023/09/28 03:19:10;;;;;;;10.55;6.80;;;17.10;99.90;;;;;;5016697;28;20543;-77
2023/09/28 03:21:36;;;;;;;8.95;6.90;;;17.20;99.90;;;;;;5045773;28;20072;-78
2023/09/28 03:24:01;;;;;;;10.52;6.97;;;17.10;99.90;;;;;;5025914;28;20460;-77
2023/09/28 03:26:30;;;;;;;9.85;7.05;;;17.00;99.90;;;;;;5029067;28;20508;-77
2023/09/28 03:28:59;;;;;;;13.25;6.70;;;17.00;99.90;;;;;;5011457;28;20713;-77
2023/09/28 03:31:32;;;;;;;12.90;6.60;;;17.10;99.90;;;;;;5044912;28;20098;-78
2023/09/28 03:33:58;;;;;;;;;;;16.90;99.90;;;;;;5049158;28;20452;-77
2023/09/28 03:36:24;;;;;;;14.50;7.18;;;17.00;99.90;;;;;;5029670;28;19925;-77
2023/09/28 03:38:50;;;;;;;8.68;6.75;;;16.90;99.90;;;;;;5028852;28;20064;-77
2023/09/28 03:41:17;;;;;;;11.23;7.05;;;16.80;99.90;;;;;;5047630;28;20476;-77
2023/09/28 03:43:48;;;;;;;12.48;7.40;;;16.80;99.90;;;;;;5044176;28;20538;-77
2023/09/28 03:46:19;;;;;;;11.32;7.85;;;16.80;99.90;;;;;;5039298;28;20053;-77
2023/09/28 03:48:45;;;;;;;14.00;7.35;;;16.80;99.90;;;;;;5028762;28;20041;-77
2023/09/28 03:51:11;;;;;;;16.38;7.30;;;16.70;99.90;;;;;;5028358;28;20063;-77
2023/09/28 03:53:40;;;;;;;11.88;7.80;;;16.70;99.90;;;;;;5045167;28;20079;-77
2023/09/28 03:56:06;;;;;;;12.13;7.28;;;16.70;99.90;;;;;;5048406;28;20300;-77
2023/09/28 03:58:33;;;;;;;16.63;8.32;;;16.60;99.90;;;;;;5028267;28;20275;-77
2023/09/28 04:00:59;;;;;;;15.60;7.93;;;16.60;99.90;;;;;;5047832;28;20033;-77
2023/09/28 04:03:24;;;;;;;12.13;7.97;;;16.60;99.90;;;;;;5026547;28;20546;-77
2023/09/28 04:05:50;;;;;;;15.95;7.97;;;16.50;99.90;;;;;;5029797;28;20045;-79
2023/09/28 04:08:16;;;;;;;16.33;8.15;;;16.50;99.90;;;;;;5024170;28;20091;-76
2023/09/28 04:10:42;;;;;;;9.80;6.88;;;16.50;99.90;;;;;;5048771;28;20053;-77
2023/09/28 04:13:08;;;;;;;12.82;7.93;;;16.50;99.90;;;;;;5034337;28;20045;-77
2023/09/28 04:15:33;;;;;;;11.07;7.82;;;16.50;99.90;;;;;;5043239;28;20040;-77
2023/09/28 04:18:00;;;;;;;12.82;6.50;;;16.50;99.90;;;;;;5028135;28;20048;-77
2023/09/28 04:20:26;;;;;;;12.50;6.00;;;16.50;99.90;;;;;;5043717;28;20491;-78
2023/09/28 04:22:52;;;;;;;11.85;5.30;;;16.60;99.90;;;;;;5042588;28;20044;-77
2023/09/28 04:25:19;;;;;;;13.77;4.68;;;16.60;99.90;;;;;;5048947;28;20439;-77
2023/09/28 04:27:46;;;;;;;12.88;4.03;;;16.60;99.90;;;;;;5047430;28;20041;-78
2023/09/28 04:30:12;;;;;;;10.85;3.40;;;16.60;99.90;;;;;;5047595;28;20508;-78
2023/09/28 04:32:38;;;;;;;18.85;3.97;;;16.70;99.90;;;;;;5045062;28;20059;-78
2023/09/28 04:35:06;;;;;;;13.82;3.65;;;16.80;99.90;;;;;;5047072;28;20036;-78
2023/09/28 04:37:32;;;;;;;15.18;3.70;;;16.80;99.90;;;;;;5043552;28;20201;-78
2023/09/28 04:39:58;;;;;;;16.13;3.28;;;16.80;99.90;;;;;;5046770;28;20627;-78
2023/09/28 04:42:23;;;;;;;20.95;3.85;;;16.80;99.90;;;;;;5025900;28;20152;-78
2023/09/28 04:44:49;;;;;;;20.13;4.75;;;16.80;99.90;;;;;;5050406;28;20404;-78
2023/09/28 04:47:15;;;;;;;15.38;3.75;;;16.70;99.90;;;;;;5047870;28;20140;-80
2023/09/28 04:49:41;;;;;;;24.17;4.15;;;16.70;99.90;;;;;;5048597;28;20039;-79
2023/09/28 04:52:10;;;;;;;19.20;3.63;;;16.70;99.90;;;;;;5025750;28;20423;-79
2023/09/28 04:54:36;;;;;;;26.13;4.88;;;16.70;99.90;;;;;;5026453;28;20045;-79
2023/09/28 04:57:02;;;;;;;21.38;4.20;;;16.60;99.90;;;;;;5024844;28;20056;-79
2023/09/28 04:59:27;;;;;;;21.38;4.20;;;16.50;99.90;;;;;;5028429;28;20508;-79
2023/09/28 05:01:53;;;;;;;24.42;4.15;;;16.50;99.90;;;;;;5043017;28;20116;-79
2023/09/28 05:04:19;;;;;;;21.20;4.45;;;16.50;99.90;;;;;;5025924;28;20041;-80
2023/09/28 05:06:45;;;;;;;19.80;4.50;;;16.40;99.90;;;;;;5029780;28;20037;-81
2023/09/28 05:09:13;;;;;;;21.35;5.13;;;16.40;99.90;;;;;;5047002;28;20033;-79
2023/09/28 05:11:39;;;;;;;25.70;4.97;;;16.30;99.90;;;;;;5042564;28;20079;-80
2023/09/28 05:14:05;;;;;;;32.70;4.50;;;16.20;99.90;;;;;;5025022;28;20053;-79
2023/09/28 05:16:31;;;;;;;26.00;4.85;;;16.20;99.90;;;;;;5031396;28;20037;-78
2023/09/28 05:18:57;;;;;;;24.33;4.97;;;16.10;99.90;;;;;;5046078;28;20040;-79
2023/09/28 05:21:23;;;;;;;22.52;4.70;;;16.10;99.90;;;;;;5026606;28;20552;-79
2023/09/28 05:23:50;;;;;;;27.77;4.85;;;16.00;99.90;;;;;;5042955;28;20128;-81
2023/09/28 05:26:16;;;;;;;27.05;5.00;;;16.00;99.90;;;;;;5024633;28;20045;-80
2023/09/28 05:28:42;;;;;;;29.15;5.65;;;16.00;99.90;;;;;;5028421;28;20140;-79
2023/09/28 05:31:08;;;;;;;24.83;5.18;;;15.90;99.90;;;;;;5046501;28;20128;-80
2023/09/28 05:33:34;;;;;;;26.88;5.80;;;15.90;99.90;;;;;;5027205;28;20037;-81
2023/09/28 05:36:00;;;;;;;32.15;5.72;;;16.00;99.90;;;;;;5028594;28;20041;-79
2023/09/28 05:38:26;;;;;;;25.50;4.38;;;15.90;99.90;;;;;;5043502;28;20063;-82
2023/09/28 05:40:54;;;;;;;25.10;5.25;;;15.90;99.90;;;;;;5046269;28;20130;-83
2023/09/28 05:43:19;;;;;;;24.42;4.53;;;15.90;99.90;;;;;;5042557;28;20138;-81
2023/09/28 05:45:45;;;;;;;24.45;4.97;;;15.90;99.90;;;;;;5033932;28;20870;-82
2023/09/28 05:48:11;;;;;;;31.25;5.95;;;15.90;99.90;;;;;;5047430;28;20389;-81
2023/09/28 05:50:36;;;;;;;29.35;5.80;;;15.80;99.90;;;;;;5047333;28;20044;-79
2023/09/28 05:53:02;;;;;;;30.23;5.10;;;15.80;99.90;;;;;;5042287;28;20196;-79
2023/09/28 05:55:28;;;;;;;29.05;5.85;;;15.80;99.90;;;;;;5024549;28;20484;-78
2023/09/28 05:57:53;;;;;;;21.88;4.97;;;15.80;99.90;;;;;;5027430;28;20103;-79
2023/09/28 06:00:19;;;;;;;26.25;5.15;;;15.80;99.90;;;;;;5037682;28;20057;-80
2023/09/28 06:02:45;;;;;;;23.83;4.53;;;15.80;99.90;;;;;;5045929;28;20036;-79
2023/09/28 06:05:11;;;;;;;31.60;5.50;;;15.80;99.90;;;;;;5030049;28;20049;-78
2023/09/28 06:07:37;;;;;;;26.15;5.63;;;15.90;99.90;;;;;;5046229;28;20176;-79
2023/09/28 06:10:03;;;;;;;29.45;5.35;;;15.80;99.90;;;;;;5045560;28;20462;-79
2023/09/28 06:12:29;;;;;;;27.38;5.28;;;15.90;99.90;;;;;;5047360;28;20037;-78
2023/09/28 06:14:55;;;;;;;29.10;5.07;;;16.00;99.90;;;;;;5048129;28;20537;-77
2023/09/28 06:17:21;;;;;;;27.83;4.65;;;16.00;99.90;;;;;;5032720;28;20057;-78
2023/09/28 06:19:46;;;;;;;24.77;5.10;;;16.10;99.90;;;;;;5032710;28;20049;-78
2023/09/28 06:22:12;;;;;;;36.40;6.15;;;16.10;99.90;;;;;;5029911;28;20476;-77
2023/09/28 06:24:41;;;;;;;27.65;4.85;;;16.20;99.90;;;;;;5050867;28;20500;-78
2023/09/28 06:27:07;;;;;;;31.45;5.40;;;16.20;99.90;;;;;;5027661;28;20431;-77
2023/09/28 06:29:32;;;;;;;26.55;5.50;;;16.20;99.90;;;;;;5032680;28;20543;-75
2023/09/28 06:31:59;;;;;;;26.13;5.22;;;16.20;99.90;;;;;;5050286;28;20045;-76
2023/09/28 06:34:24;;;;;;;25.73;6.43;;;16.30;99.90;;;;;;5050783;28;20037;-76
2023/09/28 06:36:50;;;;;;;30.42;6.03;;;16.30;99.90;;;;;;5032848;28;20100;-76
2023/09/28 06:39:16;;;;;;;35.97;5.97;;;16.40;99.90;;;;;;5025271;28;20046;-77
2023/09/28 06:41:41;;;;;;;27.08;5.60;;;16.40;99.90;;;;;;5025235;28;20532;-76
2023/09/28 06:44:10;;;;;;;32.90;6.20;;;16.50;99.90;;;;;;5028416;28;20041;-76
2023/09/28 06:46:36;;;;;;;30.42;7.07;;;16.50;99.90;;;;;;5026636;28;20065;-76
2023/09/28 06:49:05;;;;;;;32.78;5.53;;;16.60;99.90;;;;;;5027003;28;20546;-78
2023/09/28 06:51:31;;;;;;;30.67;6.40;;;16.60;99.90;;;;;;5029895;28;20033;-78
2023/09/28 06:53:57;;;;;;;27.40;5.93;;;16.70;99.90;;;;;;5029163;28;20040;-78
2023/09/28 06:56:23;;;;;;;29.60;6.25;;;16.80;99.90;;;;;;5029493;28;20417;-77
2023/09/28 06:58:50;;;;;;;29.98;5.22;;;16.80;99.90;;;;;;5013510;28;20064;-77
2023/09/28 07:01:16;;;;;;;27.67;6.47;;;16.90;99.90;;;;;;5012881;28;20489;-77
2023/09/28 07:03:41;;;;;;;25.40;5.65;;;16.90;99.90;;;;;;5011785;28;20041;-77
2023/09/28 07:06:10;;;;;;;29.58;6.07;;;17.00;99.90;;;;;;5030937;28;20432;-76
2023/09/28 07:08:36;;;;;;;26.42;5.70;;;17.00;99.90;;;;;;5012406;28;20038;-77
2023/09/28 07:11:02;;;;;;;21.80;5.60;;;17.10;99.90;;;;;;5012235;28;20104;-77
2023/09/28 07:13:27;;;;;;;29.40;5.93;;;17.00;99.90;;;;;;5028250;28;20072;-77
2023/09/28 07:15:56;;;;;;;31.13;6.40;;;17.00;99.90;;;;;;5009111;28;20037;-78
2023/09/28 07:18:22;;;;;;;27.05;5.95;;;17.10;99.90;;;;;;5027458;28;20033;-78
2023/09/28 07:20:48;;;;;;;27.42;5.57;;;17.10;99.90;;;;;;5026858;28;20579;-80
2023/09/28 07:23:13;;;;;;;28.60;5.50;;;17.10;99.90;;;;;;5014001;28;20120;-80
2023/09/28 07:25:40;;;;;;;27.77;5.82;;;17.20;99.90;;;;;;5027923;28;20536;-79
2023/09/28 07:28:06;;;;;;;28.63;5.45;;;17.20;99.90;;;;;;4980006;28;20378;-79
2023/09/28 07:30:32;;;;;;;25.73;5.43;;;17.30;99.90;;;;;;5012442;28;20052;-80
2023/09/28 07:32:57;;;;;;;25.48;5.13;;;17.40;99.90;;;;;;5029221;28;20412;-79
2023/09/28 07:35:23;;;;;;;24.77;5.90;;;17.40;99.90;;;;;;5011178;28;20428;-79
2023/09/28 07:37:49;;;;;;;31.25;5.47;;;17.40;99.90;;;;;;5048850;28;20045;-79
2023/09/28 07:40:17;;;;;;;30.52;6.80;;;17.40;99.90;;;;;;5018810;28;20116;-79
2023/09/28 07:42:44;;;;;;;27.95;5.00;;;17.50;99.90;;;;;;5015439;28;20496;-79
2023/09/28 07:45:12;;;;;;;30.33;5.80;;;17.60;99.90;;;;;;5046900;28;20395;-79
2023/09/28 07:47:41;;;;;;;24.17;5.45;;;17.60;99.90;;;;;;5049662;28;20041;-79
2023/09/28 07:50:10;;;;;;;33.55;6.15;;;17.60;99.90;;;;;;5050512;28;20411;-80
2023/09/28 07:52:36;;;;;;;28.15;5.20;;;17.70;99.90;;;;;;5018998;28;20560;-76
2023/09/28 07:55:02;;;;;;;25.92;5.60;;;17.70;99.90;;;;;;5031726;28;20059;-79
2023/09/28 07:57:27;;;;;;;25.13;5.30;;;17.70;99.90;;;;;;5025754;28;20132;-79
2023/09/28 07:59:56;;;;;;;25.02;5.35;;;17.80;99.90;;;;;;5018031;28;20037;-79
2023/09/28 08:02:22;;;;;;;26.75;4.90;;;17.80;99.90;;;;;;5049571;28;20080;-80
2023/09/28 08:04:48;;;;;;;22.70;4.60;;;17.80;99.90;;;;;;5050026;28;20064;-79
2023/09/28 08:07:15;;;;;;;27.77;4.57;;;17.90;99.90;;;;;;5047806;28;20044;-79
2023/09/28 08:09:42;;;;;;;33.50;5.43;;;17.90;99.90;;;;;;5021461;28;20962;-79
2023/09/28 08:12:08;;;;;;;32.10;5.50;;;18.00;99.90;;;;;;5049094;28;20049;-79
2023/09/28 08:14:34;;;;;;;29.17;4.85;;;18.00;99.90;;;;;;5048853;28;20030;-79
2023/09/28 08:16:59;;;;;;;22.35;4.85;;;18.00;99.90;;;;;;5049350;28;20132;-79
2023/09/28 08:19:25;;;;;;;25.95;5.65;;;18.10;99.90;;;;;;5014489;28;20037;-80
2023/09/28 08:21:51;;;;;;;18.88;4.43;;;18.10;99.90;;;;;;5016436;28;20045;-79
2023/09/28 08:24:17;;;;;;;22.17;4.47;;;18.10;99.90;;;;;;5048337;28;20444;-79
2023/09/28 08:26:44;;;;;;;35.20;6.32;;;18.20;99.90;;;;;;5004831;28;20475;-79
2023/09/28 08:29:09;;;;;;;21.67;4.38;;;18.20;99.90;;;;;;5014020;28;20503;-79
2023/09/28 08:31:35;;;;;;;20.30;4.43;;;18.20;99.90;;;;;;5048077;28;20040;-77
2023/09/28 08:34:03;;;;;;;21.73;5.70;;;18.20;99.90;;;;;;5049700;28;20216;-77
2023/09/28 08:36:29;;;;;;;24.27;5.05;;;18.20;99.90;;;;;;5027426;28;20050;-77
2023/09/28 08:38:56;;;;;;;24.27;4.50;;;18.20;99.90;;;;;;5026990;28;20404;-77
2023/09/28 08:41:34;;;;;;;22.45;5.18;;;18.30;99.90;;;;;;5028240;28;20493;-77
2023/09/28 08:44:05;;;;;;;27.02;5.88;;;18.30;99.90;;;;;;5028979;28;20075;-77
2023/09/28 08:46:38;;;;;;;29.65;6.03;;;18.20;99.90;;;;;;5027359;28;20042;-77
2023/09/28 08:49:06;;;;;;;28.25;5.43;;;18.20;99.90;;;;;;5009864;28;20041;-78
2023/09/28 08:51:33;;;;;;;31.60;5.93;;;18.20;99.90;;;;;;4994935;28;20069;-77
2023/09/28 08:54:05;;;;;;;29.20;6.18;;;18.30;99.90;;;;;;5009035;28;20511;-71
2023/09/28 08:56:39;;;;;;;22.67;5.25;;;18.20;99.90;;;;;;5028843;28;20037;-74
2023/09/28 08:59:05;;;;;;;26.25;5.68;;;18.20;99.90;;;;;;5010863;28;20385;-75
2023/09/28 09:01:32;;;;;;;21.15;4.82;;;18.20;99.90;;;;;;5029449;28;20052;-77
2023/09/28 09:03:59;;;;;;;23.13;4.88;;;18.30;99.90;;;;;;5026820;28;20640;-70
2023/09/28 09:06:29;;;;;;;28.60;6.03;;;18.20;99.90;;;;;;5027272;28;20037;-70
2023/09/28 09:09:00;;;;;;;25.10;5.07;;;18.20;99.90;;;;;;5024846;28;20473;-71
2023/09/28 09:11:28;;;;;;;24.33;5.07;;;18.20;99.90;;;;;;5006490;28;20049;-70
2023/09/28 09:13:57;;;;;;;24.75;5.57;;;18.20;99.90;;;;;;5022343;28;20132;-71
2023/09/28 09:16:24;;;;;;;23.05;4.65;;;18.20;99.90;;;;;;5028220;28;20041;-70
2023/09/28 09:18:52;;;;;;;25.85;5.95;;;18.30;99.90;;;;;;5028785;28;20045;-70
2023/09/28 09:21:19;;;;;;;28.40;11.68;;;18.30;99.90;;;;;;5028735;28;20053;-70
2023/09/28 09:24:01;;;;;;;21.63;4.57;;;18.40;99.90;;;;;;5025614;28;20049;-70
2023/09/28 09:26:26;;;;;;;19.70;4.57;;;18.40;99.90;;;;;;5025771;28;20042;-70
2023/09/28 09:28:58;;;;;;;17.88;4.65;;;18.50;99.90;;;;;;5028264;28;20135;-71
2023/09/28 09:31:25;;;;;;;20.73;4.80;;;18.50;99.90;;;;;;5026270;28;20128;-69
2023/09/28 09:33:50;;;;;;;32.42;5.15;;;18.70;99.90;;;;;;5006596;28;20041;-71
2023/09/28 09:36:18;;;;;;;24.02;4.88;;;18.80;99.90;;;;;;5019665;28;20052;-71
2023/09/28 09:38:44;;;;;;;21.85;4.55;;;18.80;99.90;;;;;;4994001;28;20256;-71
2023/09/28 09:41:11;;;;;;;17.67;4.30;;;18.90;99.90;;;;;;5013685;28;20045;-71
2023/09/28 09:43:40;;;;;;;23.85;4.32;;;18.90;99.90;;;;;;5046171;28;20546;-71
2023/09/28 09:46:07;;;;;;;23.60;4.60;;;19.00;99.90;;;;;;5048441;28;20135;-71
2023/09/28 09:48:43;;;;;;;23.65;5.43;;;19.00;99.90;;;;;;5016604;28;20125;-71
2023/09/28 09:51:17;;;;;;;19.42;4.93;;;19.00;99.90;;;;;;5049220;28;20045;-71
2023/09/28 09:53:44;;;;;;;28.45;4.95;;;19.10;99.90;;;;;;5049590;28;20440;-71
2023/09/28 09:56:11;;;;;;;15.48;3.60;;;19.10;99.90;;;;;;5031467;28;20055;-71
2023/09/28 09:58:48;;;;;;;20.90;4.88;;;19.10;99.90;;;;;;5049268;28;20071;-71
2023/09/28 10:01:16;;;;;;;19.17;4.57;;;19.10;99.90;;;;;;5051735;28;20075;-70
2023/09/28 10:03:51;;;;;;;23.23;4.57;;;19.20;99.90;;;;;;5051882;28;20091;-71
2023/09/28 10:06:19;;;;;;;19.33;4.65;;;19.20;99.90;;;;;;5033177;28;20080;-71
2023/09/28 10:08:46;;;;;;;18.77;4.20;;;19.20;99.90;;;;;;5031014;28;20124;-71
2023/09/28 10:11:12;;;;;;;17.60;4.10;;;19.20;99.90;;;;;;5051356;28;20044;-71
2023/09/28 10:13:39;;;;;;;24.40;4.63;;;19.20;99.90;;;;;;5050726;28;20036;-71
2023/09/28 10:16:07;;;;;;;19.35;3.92;;;19.20;99.90;;;;;;5017467;28;20040;-71
2023/09/28 10:18:35;;;;;;;28.80;4.82;;;19.30;99.90;;;;;;5032435;28;20055;-71
2023/09/28 10:21:01;;;;;;;21.92;4.45;;;19.30;99.90;;;;;;5033297;28;20052;-71
2023/09/28 10:23:28;;;;;;;19.75;4.55;;;19.30;99.90;;;;;;5049597;28;20041;-71
2023/09/28 10:26:14;;;;;;;23.52;4.50;;;19.40;99.90;;;;;;5034717;28;20139;-71
2023/09/28 10:29:04;;;;;;;20.88;4.80;;;19.40;99.90;;;;;;5052583;28;20033;-70
2023/09/28 10:31:31;;;;;;;22.05;4.50;;;19.40;99.90;;;;;;5049782;28;20036;-71
2023/09/28 10:34:04;;;;;;;27.05;5.28;;;19.40;99.90;;;;;;5031450;28;20120;-71
2023/09/28 10:36:32;;;;;;;21.80;4.80;;;19.40;99.90;;;;;;5049770;28;20156;-71
2023/09/28 10:39:15;;;;;;;18.67;4.63;;;19.30;99.90;;;;;;5052727;28;20036;-71
2023/09/28 10:41:51;;;;;;;21.20;4.00;;;19.40;99.90;;;;;;5046050;28;20123;-71
2023/09/28 10:44:18;;;;;;;27.80;4.97;;;19.40;99.90;;;;;;5031724;28;20048;-71
2023/09/28 10:46:47;;;;;;;17.70;4.72;;;19.30;99.90;;;;;;5048281;28;20041;-71
2023/09/28 10:49:33;;;;;;;17.45;3.90;;;19.40;99.90;;;;;;5049315;28;20040;-71
2023/09/28 10:51:59;;;;;;;20.58;3.95;;;19.40;99.90;;;;;;5050262;28;20127;-71
2023/09/28 10:54:25;;;;;;;26.30;5.70;;;19.40;99.90;;;;;;5048711;28;20631;-71
2023/09/28 10:56:51;;;;;;;21.60;4.70;;;19.50;99.90;;;;;;5028470;28;20137;-70
2023/09/28 10:59:21;;;;;;;15.35;3.95;;;19.50;99.90;;;;;;5049920;28;20131;-69
2023/09/28 11:01:48;;;;;;;19.27;4.50;;;19.50;99.90;;;;;;5048289;28;20523;-69
2023/09/28 11:04:15;;;;;;;17.90;4.53;;;19.50;99.90;;;;;;5048536;28;20136;-70
2023/09/28 11:06:43;;;;;;;15.80;3.58;;;19.50;99.90;;;;;;5049166;28;20091;-69
2023/09/28 11:09:09;;;;;;;23.35;5.00;;;19.40;99.90;;;;;;5049032;28;20079;-69
2023/09/28 11:11:41;;;;;;;17.33;3.75;;;19.40;99.90;;;;;;5031049;28;20041;-69
2023/09/28 11:14:07;;;;;;;15.68;3.40;;;19.40;99.90;;;;;;5029123;28;20450;-69
2023/09/28 11:16:34;;;;;;;17.52;4.75;;;19.40;99.90;;;;;;5030765;28;20037;-69
2023/09/28 11:19:00;;;;;;;23.42;4.13;;;19.40;99.90;;;;;;5047174;28;20500;-69
2023/09/28 11:21:26;;;;;;;20.92;4.78;;;19.50;99.90;;;;;;5049860;28;20048;-69
2023/09/28 11:23:52;;;;;;;24.40;4.82;;;19.50;99.90;;;;;;5049406;28;20045;-69
2023/09/28 11:26:19;;;;;;;18.65;4.05;;;19.60;99.90;;;;;;5051030;28;20111;-69
2023/09/28 11:28:45;;;;;;;18.90;3.65;;;19.70;99.90;;;;;;5049723;28;20029;-69
2023/09/28 11:31:15;;;;;;;24.90;4.22;;;19.70;99.90;;;;;;5048075;28;20091;-70
2023/09/28 11:33:43;;;;;;;18.10;4.43;;;19.80;99.90;;;;;;5052257;28;20041;-69
2023/09/28 11:36:15;;;;;;;14.02;3.20;;;19.80;99.90;;;;;;5047111;28;20520;-70
2023/09/28 11:38:41;;;;;;;22.60;4.18;;;19.80;99.90;;;;;;5046137;28;20094;-70
2023/09/28 11:41:08;;;;;;;21.00;4.15;;;19.80;99.90;;;;;;5050124;28;20080;-69
2023/09/28 11:43:47;;;;;;;19.80;3.80;;;19.80;99.90;;;;;;5032114;28;20534;-70
2023/09/28 11:46:27;;;;;;;21.40;4.72;;;19.80;99.90;;;;;;5047852;28;20389;-71
2023/09/28 11:49:04;;;;;;;17.05;4.20;;;19.80;99.90;;;;;;5045953;28;20514;-70
2023/09/28 11:51:32;;;;;;;22.60;5.05;;;19.90;99.90;;;;;;5046875;28;20051;-70
2023/09/28 11:53:58;;;;;;;22.08;4.57;;;19.90;99.90;;;;;;5029904;28;20043;-69
2023/09/28 11:56:25;;;;;;;19.23;3.80;;;19.90;99.90;;;;;;5048636;28;20041;-70
2023/09/28 11:58:53;;;;;;;16.48;4.25;;;19.90;99.90;;;;;;5028949;28;20052;-70
2023/09/28 12:01:19;;;;;;;19.33;3.97;;;19.80;99.90;;;;;;5028665;28;20033;-70
2023/09/28 12:03:48;;;;;;;20.63;4.28;;;19.60;99.90;;;;;;4999529;28;20485;-70
2023/09/28 12:06:17;;;;;;;14.90;4.20;;;19.50;99.90;;;;;;5029207;28;20106;-70
2023/09/28 12:08:43;;;;;;;17.15;4.05;;;19.50;99.90;;;;;;5021088;28;20528;-70
2023/09/28 12:11:09;;;;;;;24.67;3.38;;;19.40;99.90;;;;;;5032490;28;20385;-69
2023/09/28 12:13:36;;;;;;;14.32;3.63;;;19.40;99.90;;;;;;5029275;28;20052;-70
2023/09/28 12:16:03;;;;;;;15.57;3.55;;;19.40;99.90;;;;;;5030549;28;20073;-70
2023/09/28 12:18:29;;;;;;;19.92;4.38;;;19.40;99.90;;;;;;5045984;28;20041;-70
2023/09/28 12:20:55;;;;;;;15.32;3.85;;;19.30;99.90;;;;;;5010298;28;20450;-70
2023/09/28 12:23:21;;;;;;;21.20;4.53;;;19.40;99.90;;;;;;5013916;28;20261;-70
2023/09/28 12:25:46;;;;;;;21.13;4.82;;;19.40;99.90;;;;;;5048724;28;20415;-69
2023/09/28 12:28:12;;;;;;;16.00;4.32;;;19.50;99.90;;;;;;5047839;28;20049;-69
2023/09/28 12:30:38;;;;;;;18.55;4.30;;;19.60;99.90;;;;;;5030627;28;20412;-69
2023/09/28 12:33:05;;;;;;;18.42;4.47;;;19.70;99.90;;;;;;5030960;28;20085;-70
2023/09/28 12:35:31;;;;;;;21.80;4.07;;;19.70;99.90;;;;;;5047000;28;20041;-69
2023/09/28 12:37:56;;;;;;;18.17;4.18;;;19.80;99.90;;;;;;5044337;28;20043;-70